sensor_id;sensor_type;location;lat;lon;timestamp;temperature;humidity
57636;DHT22;43465;50.728;4.160;2022-11-15T00:00:16;12.80;99.90
57636;DHT22;43465;50.728;4.160;2022-11-15T00:02:42;12.80;99.90
57636;DHT22;43465;50.728;4.160;2022-11-15T00:05:07;12.90;99.90
57636;DHT22;43465;50.728;4.160;2022-11-15T00:07:33;12.80;99.90
57636;DHT22;43465;50.728;4.160;2022-11-15T00:09:59;12.80;99.90
57636;DHT22;43465;50.728;4.160;2022-11-15T00:12:24;12.80;99.90
57636;DHT22;43465;50.728;4.160;2022-11-15T00:14:50;12.80;99.90
57636;DHT22;43465;50.728;4.160;2022-11-15T00:17:15;12.80;99.90
57636;DHT22;43465;50.728;4.160;2022-11-15T00:19:41;12.80;99.90
57636;DHT22;43465;50.728;4.160;2022-11-15T00:22:06;12.90;99.90
57636;DHT22;43465;50.728;4.160;2022-11-15T00:24:32;12.90;99.90
57636;DHT22;43465;50.728;4.160;2022-11-15T00:26:58;12.90;99.90
57636;DHT22;43465;50.728;4.160;2022-11-15T00:29:23;12.90;99.90
57636;DHT22;43465;50.728;4.160;2022-11-15T00:31:49;13.00;99.90
57636;DHT22;43465;50.728;4.160;2022-11-15T00:34:14;13.00;99.90
57636;DHT22;43465;50.728;4.160;2022-11-15T00:36:40;13.00;99.90
57636;DHT22;43465;50.728;4.160;2022-11-15T00:39:05;13.10;99.90
57636;DHT22;43465;50.728;4.160;2022-11-15T00:41:31;13.10;99.90
57636;DHT22;43465;50.728;4.160;2022-11-15T00:43:57;13.10;99.90
57636;DHT22;43465;50.728;4.160;2022-11-15T00:46:22;13.20;99.90
57636;DHT22;43465;50.728;4.160;2022-11-15T00:48:48;13.10;99.90
57636;DHT22;43465;50.728;4.160;2022-11-15T00:51:13;13.10;99.90
57636;DHT22;43465;50.728;4.160;2022-11-15T00:53:39;13.10;99.90
57636;DHT22;43465;50.728;4.160;2022-11-15T00:56:05;13.10;99.90
57636;DHT22;43465;50.728;4.160;2022-11-15T00:58:31;13.10;99.90
57636;DHT22;43465;50.728;4.160;2022-11-15T01:00:56;13.20;99.90
57636;DHT22;43465;50.728;4.160;2022-11-15T01:03:32;13.20;99.90
57636;DHT22;43465;50.728;4.160;2022-11-15T01:06:01;13.20;99.90
57636;DHT22;43465;50.728;4.160;2022-11-15T01:08:27;13.20;99.90
57636;DHT22;43465;50.728;4.160;2022-11-15T01:10:52;13.30;99.90
57636;DHT22;43465;50.728;4.160;2022-11-15T01:13:18;13.20;99.90
57636;DHT22;43465;50.728;4.160;2022-11-15T01:15:44;13.20;99.90
57636;DHT22;43465;50.728;4.160;2022-11-15T01:18:09;13.20;99.90
57636;DHT22;43465;50.728;4.160;2022-11-15T01:20:40;13.20;99.90
57636;DHT22;43465;50.728;4.160;2022-11-15T01:23:06;13.20;99.90
57636;DHT22;43465;50.728;4.160;2022-11-15T01:25:32;13.20;99.90
57636;DHT22;43465;50.728;4.160;2022-11-15T01:27:57;13.20;99.90
57636;DHT22;43465;50.728;4.160;2022-11-15T01:30:23;13.20;99.90
57636;DHT22;43465;50.728;4.160;2022-11-15T01:32:48;13.20;99.90
57636;DHT22;43465;50.728;4.160;2022-11-15T01:35:14;13.20;99.90
57636;DHT22;43465;50.728;4.160;2022-11-15T01:37:40;13.20;99.90
57636;DHT22;43465;50.728;4.160;2022-11-15T01:40:05;13.20;99.90
57636;DHT22;43465;50.728;4.160;2022-11-15T01:42:31;13.20;99.90
57636;DHT22;43465;50.728;4.160;2022-11-15T01:44:57;13.30;99.90
57636;DHT22;43465;50.728;4.160;2022-11-15T01:47:37;13.30;99.90
57636;DHT22;43465;50.728;4.160;2022-11-15T01:50:12;13.30;99.90
57636;DHT22;43465;50.728;4.160;2022-11-15T01:52:39;13.30;99.90
57636;DHT22;43465;50.728;4.160;2022-11-15T01:55:21;13.30;99.90
57636;DHT22;43465;50.728;4.160;2022-11-15T01:57:51;13.20;99.90
57636;DHT22;43465;50.728;4.160;2022-11-15T02:00:18;13.30;99.90
57636;DHT22;43465;50.728;4.160;2022-11-15T02:02:43;13.30;99.90
57636;DHT22;43465;50.728;4.160;2022-11-15T02:05:09;13.30;99.90
57636;DHT22;43465;50.728;4.160;2022-11-15T02:07:36;13.40;99.90
57636;DHT22;43465;50.728;4.160;2022-11-15T02:10:08;13.30;99.90
57636;DHT22;43465;50.728;4.160;2022-11-15T02:12:34;13.20;99.90
57636;DHT22;43465;50.728;4.160;2022-11-15T02:15:00;13.20;99.90
57636;DHT22;43465;50.728;4.160;2022-11-15T02:20:39;13.00;99.90
57636;DHT22;43465;50.728;4.160;2022-11-15T02:37:07;12.70;99.90
57636;DHT22;43465;50.728;4.160;2022-11-15T02:40:01;12.70;99.90
57636;DHT22;43465;50.728;4.160;2022-11-15T02:42:35;12.70;99.90
57636;DHT22;43465;50.728;4.160;2022-11-15T02:45:28;12.60;99.90
57636;DHT22;43465;50.728;4.160;2022-11-15T02:47:57;12.60;99.90
57636;DHT22;43465;50.728;4.160;2022-11-15T02:50:26;12.60;99.90
57636;DHT22;43465;50.728;4.160;2022-11-15T02:52:52;12.60;99.90
57636;DHT22;43465;50.728;4.160;2022-11-15T03:00:59;12.50;99.90
57636;DHT22;43465;50.728;4.160;2022-11-15T03:06:42;12.50;99.90
57636;DHT22;43465;50.728;4.160;2022-11-15T03:12:01;12.60;99.90
57636;DHT22;43465;50.728;4.160;2022-11-15T03:14:32;12.50;99.90
57636;DHT22;43465;50.728;4.160;2022-11-15T03:17:26;12.40;99.90
57636;DHT22;43465;50.728;4.160;2022-11-15T03:19:56;12.40;99.90
57636;DHT22;43465;50.728;4.160;2022-11-15T03:22:25;12.40;99.90
57636;DHT22;43465;50.728;4.160;2022-11-15T03:24:55;12.30;99.90
57636;DHT22;43465;50.728;4.160;2022-11-15T03:27:23;12.40;99.90
57636;DHT22;43465;50.728;4.160;2022-11-15T03:29:56;12.30;99.90
57636;DHT22;43465;50.728;4.160;2022-11-15T03:32:26;12.30;99.90
57636;DHT22;43465;50.728;4.160;2022-11-15T03:35:00;12.30;99.90
57636;DHT22;43465;50.728;4.160;2022-11-15T03:37:37;12.30;99.90
57636;DHT22;43465;50.728;4.160;2022-11-15T03:40:06;12.30;99.90
57636;DHT22;43465;50.728;4.160;2022-11-15T03:45:17;12.30;99.90
57636;DHT22;43465;50.728;4.160;2022-11-15T03:48:00;12.30;99.90
57636;DHT22;43465;50.728;4.160;2022-11-15T03:50:27;12.20;99.90
57636;DHT22;43465;50.728;4.160;2022-11-15T03:52:54;12.20;99.90
57636;DHT22;43465;50.728;4.160;2022-11-15T03:55:21;12.20;99.90
57636;DHT22;43465;50.728;4.160;2022-11-15T03:57:49;12.20;99.90
57636;DHT22;43465;50.728;4.160;2022-11-15T04:00:15;12.10;99.90
57636;DHT22;43465;50.728;4.160;2022-11-15T04:02:41;12.10;99.90
57636;DHT22;43465;50.728;4.160;2022-11-15T04:05:07;12.10;99.90
57636;DHT22;43465;50.728;4.160;2022-11-15T04:07:32;12.20;99.90
57636;DHT22;43465;50.728;4.160;2022-11-15T04:09:58;12.20;99.90
57636;DHT22;43465;50.728;4.160;2022-11-15T04:12:38;12.20;99.90
57636;DHT22;43465;50.728;4.160;2022-11-15T04:15:09;12.40;99.90
57636;DHT22;43465;50.728;4.160;2022-11-15T04:23:09;12.40;99.90
57636;DHT22;43465;50.728;4.160;2022-11-15T04:25:55;12.50;99.90
57636;DHT22;43465;50.728;4.160;2022-11-15T04:28:21;12.50;99.90
57636;DHT22;43465;50.728;4.160;2022-11-15T04:30:47;12.60;99.90
57636;DHT22;43465;50.728;4.160;2022-11-15T04:33:13;12.60;99.90
57636;DHT22;43465;50.728;4.160;2022-11-15T04:35:38;12.60;99.90
57636;DHT22;43465;50.728;4.160;2022-11-15T04:38:05;12.50;99.90
57636;DHT22;43465;50.728;4.160;2022-11-15T04:40:31;12.50;99.90
57636;DHT22;43465;50.728;4.160;2022-11-15T04:42:57;12.60;99.90
57636;DHT22;43465;50.728;4.160;2022-11-15T04:45:23;12.50;99.90
57636;DHT22;43465;50.728;4.160;2022-11-15T04:47:49;12.50;99.90
57636;DHT22;43465;50.728;4.160;2022-11-15T04:50:15;12.40;99.90
57636;DHT22;43465;50.728;4.160;2022-11-15T04:52:42;12.50;99.90
57636;DHT22;43465;50.728;4.160;2022-11-15T04:55:09;12.50;99.90
57636;DHT22;43465;50.728;4.160;2022-11-15T04:57:35;12.50;99.90
57636;DHT22;43465;50.728;4.160;2022-11-15T05:00:04;12.50;99.90
57636;DHT22;43465;50.728;4.160;2022-11-15T05:02:30;12.50;99.90
57636;DHT22;43465;50.728;4.160;2022-11-15T05:05:15;12.40;99.90
57636;DHT22;43465;50.728;4.160;2022-11-15T05:07:41;12.40;99.90
57636;DHT22;43465;50.728;4.160;2022-11-15T05:10:07;12.40;99.90
57636;DHT22;43465;50.728;4.160;2022-11-15T05:12:32;12.40;99.90
57636;DHT22;43465;50.728;4.160;2022-11-15T05:14:58;12.40;99.90
57636;DHT22;43465;50.728;4.160;2022-11-15T05:17:23;12.40;99.90
57636;DHT22;43465;50.728;4.160;2022-11-15T05:19:49;12.40;99.90
57636;DHT22;43465;50.728;4.160;2022-11-15T05:22:17;12.30;99.90
57636;DHT22;43465;50.728;4.160;2022-11-15T05:24:43;12.30;99.90
57636;DHT22;43465;50.728;4.160;2022-11-15T05:27:09;12.30;99.90
57636;DHT22;43465;50.728;4.160;2022-11-15T05:29:34;12.20;99.90
57636;DHT22;43465;50.728;4.160;2022-11-15T05:32:00;12.20;99.90
57636;DHT22;43465;50.728;4.160;2022-11-15T05:34:26;12.20;99.90
57636;DHT22;43465;50.728;4.160;2022-11-15T05:36:52;12.10;99.90
57636;DHT22;43465;50.728;4.160;2022-11-15T05:39:18;12.10;99.90
57636;DHT22;43465;50.728;4.160;2022-11-15T05:41:54;12.10;99.90
57636;DHT22;43465;50.728;4.160;2022-11-15T05:44:22;12.10;99.90
57636;DHT22;43465;50.728;4.160;2022-11-15T05:46:49;12.10;99.90
57636;DHT22;43465;50.728;4.160;2022-11-15T05:49:20;12.10;99.90
57636;DHT22;43465;50.728;4.160;2022-11-15T05:51:48;12.00;99.90
57636;DHT22;43465;50.728;4.160;2022-11-15T05:54:15;11.90;99.90
57636;DHT22;43465;50.728;4.160;2022-11-15T05:56:41;11.90;99.90
57636;DHT22;43465;50.728;4.160;2022-11-15T05:59:09;11.90;99.90
57636;DHT22;43465;50.728;4.160;2022-11-15T06:01:35;11.80;99.90
57636;DHT22;43465;50.728;4.160;2022-11-15T06:04:00;11.90;99.90
57636;DHT22;43465;50.728;4.160;2022-11-15T06:06:27;11.80;99.90
57636;DHT22;43465;50.728;4.160;2022-11-15T06:08:53;11.80;99.90
57636;DHT22;43465;50.728;4.160;2022-11-15T06:11:19;11.80;99.90
57636;DHT22;43465;50.728;4.160;2022-11-15T06:13:44;11.70;99.90
57636;DHT22;43465;50.728;4.160;2022-11-15T06:16:10;11.70;99.90
57636;DHT22;43465;50.728;4.160;2022-11-15T06:18:36;11.70;99.90
57636;DHT22;43465;50.728;4.160;2022-11-15T06:21:02;11.60;99.90
57636;DHT22;43465;50.728;4.160;2022-11-15T06:23:31;11.60;99.90
57636;DHT22;43465;50.728;4.160;2022-11-15T06:25:58;11.60;99.90
57636;DHT22;43465;50.728;4.160;2022-11-15T06:28:24;11.60;99.90
57636;DHT22;43465;50.728;4.160;2022-11-15T06:30:50;11.60;99.90
57636;DHT22;43465;50.728;4.160;2022-11-15T06:33:16;11.60;99.90
57636;DHT22;43465;50.728;4.160;2022-11-15T06:35:41;11.60;99.90
57636;DHT22;43465;50.728;4.160;2022-11-15T06:38:09;11.60;99.90
57636;DHT22;43465;50.728;4.160;2022-11-15T06:40:36;11.60;99.90
57636;DHT22;43465;50.728;4.160;2022-11-15T06:43:03;11.60;99.90
57636;DHT22;43465;50.728;4.160;2022-11-15T06:45:29;11.60;99.90
57636;DHT22;43465;50.728;4.160;2022-11-15T06:47:55;11.60;99.90
57636;DHT22;43465;50.728;4.160;2022-11-15T06:50:20;11.60;99.90
57636;DHT22;43465;50.728;4.160;2022-11-15T06:52:46;11.70;99.90
57636;DHT22;43465;50.728;4.160;2022-11-15T06:55:12;11.60;99.90
57636;DHT22;43465;50.728;4.160;2022-11-15T06:57:47;11.60;99.90
57636;DHT22;43465;50.728;4.160;2022-11-15T07:00:13;11.50;99.90
57636;DHT22;43465;50.728;4.160;2022-11-15T07:02:39;11.50;99.90
57636;DHT22;43465;50.728;4.160;2022-11-15T07:05:05;11.50;99.90
57636;DHT22;43465;50.728;4.160;2022-11-15T07:07:30;11.50;99.90
57636;DHT22;43465;50.728;4.160;2022-11-15T07:09:56;11.60;99.90
57636;DHT22;43465;50.728;4.160;2022-11-15T07:12:21;11.60;99.90
57636;DHT22;43465;50.728;4.160;2022-11-15T07:14:47;11.50;99.90
57636;DHT22;43465;50.728;4.160;2022-11-15T07:17:12;11.50;99.90
57636;DHT22;43465;50.728;4.160;2022-11-15T07:19:38;11.50;99.90
57636;DHT22;43465;50.728;4.160;2022-11-15T07:22:04;11.50;99.90
57636;DHT22;43465;50.728;4.160;2022-11-15T07:24:29;11.50;99.90
57636;DHT22;43465;50.728;4.160;2022-11-15T07:26:55;11.50;99.90
57636;DHT22;43465;50.728;4.160;2022-11-15T07:29:20;11.50;99.90
57636;DHT22;43465;50.728;4.160;2022-11-15T07:31:46;11.50;99.90
57636;DHT22;43465;50.728;4.160;2022-11-15T07:34:12;11.60;99.90
57636;DHT22;43465;50.728;4.160;2022-11-15T07:36:37;11.60;99.90
57636;DHT22;43465;50.728;4.160;2022-11-15T07:39:03;11.60;99.90
57636;DHT22;43465;50.728;4.160;2022-11-15T07:41:28;11.60;99.90
57636;DHT22;43465;50.728;4.160;2022-11-15T07:43:55;11.70;99.90
57636;DHT22;43465;50.728;4.160;2022-11-15T07:46:20;11.70;99.90
57636;DHT22;43465;50.728;4.160;2022-11-15T07:48:46;11.60;99.90
57636;DHT22;43465;50.728;4.160;2022-11-15T07:51:12;11.60;99.90
57636;DHT22;43465;50.728;4.160;2022-11-15T07:53:39;11.70;99.90
57636;DHT22;43465;50.728;4.160;2022-11-15T07:56:08;11.70;99.90
57636;DHT22;43465;50.728;4.160;2022-11-15T07:58:34;11.80;99.90
57636;DHT22;43465;50.728;4.160;2022-11-15T08:01:08;11.80;99.90
57636;DHT22;43465;50.728;4.160;2022-11-15T08:03:34;11.80;99.90
57636;DHT22;43465;50.728;4.160;2022-11-15T08:06:00;11.80;99.90
57636;DHT22;43465;50.728;4.160;2022-11-15T08:08:26;11.70;99.90
57636;DHT22;43465;50.728;4.160;2022-11-15T08:10:51;11.70;99.90
57636;DHT22;43465;50.728;4.160;2022-11-15T08:13:17;11.70;99.90
57636;DHT22;43465;50.728;4.160;2022-11-15T08:15:43;11.70;99.90
57636;DHT22;43465;50.728;4.160;2022-11-15T08:18:13;11.70;99.90
57636;DHT22;43465;50.728;4.160;2022-11-15T08:20:39;11.70;99.90
57636;DHT22;43465;50.728;4.160;2022-11-15T08:23:05;11.80;99.90
57636;DHT22;43465;50.728;4.160;2022-11-15T08:25:32;11.80;99.90
57636;DHT22;43465;50.728;4.160;2022-11-15T08:28:03;11.80;99.90
57636;DHT22;43465;50.728;4.160;2022-11-15T08:30:30;11.90;99.90
57636;DHT22;43465;50.728;4.160;2022-11-15T08:32:57;11.90;99.90
57636;DHT22;43465;50.728;4.160;2022-11-15T08:35:24;11.90;99.90
57636;DHT22;43465;50.728;4.160;2022-11-15T08:37:51;11.90;99.90
57636;DHT22;43465;50.728;4.160;2022-11-15T08:40:17;11.90;99.90
57636;DHT22;43465;50.728;4.160;2022-11-15T08:42:55;11.90;99.90
57636;DHT22;43465;50.728;4.160;2022-11-15T08:45:24;11.90;99.90
57636;DHT22;43465;50.728;4.160;2022-11-15T08:47:49;12.00;99.90
57636;DHT22;43465;50.728;4.160;2022-11-15T08:50:15;12.00;99.90
57636;DHT22;43465;50.728;4.160;2022-11-15T08:52:41;12.10;99.90
57636;DHT22;43465;50.728;4.160;2022-11-15T08:55:10;12.10;99.90
57636;DHT22;43465;50.728;4.160;2022-11-15T08:57:35;12.10;99.90
57636;DHT22;43465;50.728;4.160;2022-11-15T09:00:01;12.30;99.90
57636;DHT22;43465;50.728;4.160;2022-11-15T09:02:27;12.30;99.90
57636;DHT22;43465;50.728;4.160;2022-11-15T09:04:52;12.30;99.90
57636;DHT22;43465;50.728;4.160;2022-11-15T09:07:18;12.30;99.90
57636;DHT22;43465;50.728;4.160;2022-11-15T09:09:43;12.50;99.90
57636;DHT22;43465;50.728;4.160;2022-11-15T09:12:09;12.50;99.90
57636;DHT22;43465;50.728;4.160;2022-11-15T09:14:35;12.50;99.90
57636;DHT22;43465;50.728;4.160;2022-11-15T09:17:01;12.50;99.90
57636;DHT22;43465;50.728;4.160;2022-11-15T09:19:26;12.60;99.90
57636;DHT22;43465;50.728;4.160;2022-11-15T09:21:52;12.60;99.90
57636;DHT22;43465;50.728;4.160;2022-11-15T09:24:18;12.70;99.90
57636;DHT22;43465;50.728;4.160;2022-11-15T09:26:43;12.70;99.90
57636;DHT22;43465;50.728;4.160;2022-11-15T09:29:09;12.90;99.90
57636;DHT22;43465;50.728;4.160;2022-11-15T09:31:35;13.00;99.90
57636;DHT22;43465;50.728;4.160;2022-11-15T09:34:01;13.00;99.90
57636;DHT22;43465;50.728;4.160;2022-11-15T09:36:26;13.10;99.90
57636;DHT22;43465;50.728;4.160;2022-11-15T09:38:52;13.10;99.90
57636;DHT22;43465;50.728;4.160;2022-11-15T09:41:39;13.10;99.90
57636;DHT22;43465;50.728;4.160;2022-11-15T09:49:29;13.20;99.90
57636;DHT22;43465;50.728;4.160;2022-11-15T09:51:56;13.30;99.90
57636;DHT22;43465;50.728;4.160;2022-11-15T09:54:37;13.30;99.90
57636;DHT22;43465;50.728;4.160;2022-11-15T09:57:15;13.30;99.90
57636;DHT22;43465;50.728;4.160;2022-11-15T10:03:14;13.30;99.90
57636;DHT22;43465;50.728;4.160;2022-11-15T10:05:48;13.30;99.90
57636;DHT22;43465;50.728;4.160;2022-11-15T10:11:06;13.50;99.90
57636;DHT22;43465;50.728;4.160;2022-11-15T10:13:36;13.60;99.90
57636;DHT22;43465;50.728;4.160;2022-11-15T10:21:45;13.90;99.90
57636;DHT22;43465;50.728;4.160;2022-11-15T10:24:12;14.00;99.90
57636;DHT22;43465;50.728;4.160;2022-11-15T10:26:39;14.20;99.90
57636;DHT22;43465;50.728;4.160;2022-11-15T10:29:10;14.20;99.90
57636;DHT22;43465;50.728;4.160;2022-11-15T10:31:40;14.30;99.90
57636;DHT22;43465;50.728;4.160;2022-11-15T10:34:21;14.40;99.90
57636;DHT22;43465;50.728;4.160;2022-11-15T10:36:57;14.40;99.90
57636;DHT22;43465;50.728;4.160;2022-11-15T10:39:24;14.30;99.90
57636;DHT22;43465;50.728;4.160;2022-11-15T10:41:50;14.40;99.90
57636;DHT22;43465;50.728;4.160;2022-11-15T10:49:30;14.40;99.90
57636;DHT22;43465;50.728;4.160;2022-11-15T10:51:58;14.50;99.90
57636;DHT22;43465;50.728;4.160;2022-11-15T10:54:34;14.50;99.90
57636;DHT22;43465;50.728;4.160;2022-11-15T10:57:13;14.50;99.90
57636;DHT22;43465;50.728;4.160;2022-11-15T10:59:44;14.50;99.90
57636;DHT22;43465;50.728;4.160;2022-11-15T11:02:36;14.50;99.90
57636;DHT22;43465;50.728;4.160;2022-11-15T11:05:05;14.50;99.90
57636;DHT22;43465;50.728;4.160;2022-11-15T11:07:33;14.50;99.90
57636;DHT22;43465;50.728;4.160;2022-11-15T11:10:18;14.50;99.90
57636;DHT22;43465;50.728;4.160;2022-11-15T11:12:44;14.50;99.90
57636;DHT22;43465;50.728;4.160;2022-11-15T11:15:13;14.50;99.90
57636;DHT22;43465;50.728;4.160;2022-11-15T11:18:18;14.50;99.90
57636;DHT22;43465;50.728;4.160;2022-11-15T11:20:57;14.50;99.90
57636;DHT22;43465;50.728;4.160;2022-11-15T11:23:52;14.50;99.90
57636;DHT22;43465;50.728;4.160;2022-11-15T11:29:20;14.50;99.90
57636;DHT22;43465;50.728;4.160;2022-11-15T11:50:41;14.40;99.90
57636;DHT22;43465;50.728;4.160;2022-11-15T11:53:41;14.40;99.90
57636;DHT22;43465;50.728;4.160;2022-11-15T11:56:39;14.40;99.90
57636;DHT22;43465;50.728;4.160;2022-11-15T11:59:52;14.40;99.90
57636;DHT22;43465;50.728;4.160;2022-11-15T12:01:51;14.50;99.90
57636;DHT22;43465;50.728;4.160;2022-11-15T12:04:21;14.50;99.90
57636;DHT22;43465;50.728;4.160;2022-11-15T12:06:55;14.50;99.90
57636;DHT22;43465;50.728;4.160;2022-11-15T12:14:46;14.50;99.90
57636;DHT22;43465;50.728;4.160;2022-11-15T12:17:19;14.60;99.90
57636;DHT22;43465;50.728;4.160;2022-11-15T12:19:46;14.60;99.90
57636;DHT22;43465;50.728;4.160;2022-11-15T12:22:33;14.60;99.90
57636;DHT22;43465;50.728;4.160;2022-11-15T12:30:51;14.50;99.90
57636;DHT22;43465;50.728;4.160;2022-11-15T12:36:09;14.60;99.90
57636;DHT22;43465;50.728;4.160;2022-11-15T12:41:25;14.60;99.90
57636;DHT22;43465;50.728;4.160;2022-11-15T12:43:51;14.60;99.90
57636;DHT22;43465;50.728;4.160;2022-11-15T12:51:22;14.80;99.90
57636;DHT22;43465;50.728;4.160;2022-11-15T12:53:48;14.80;99.90
57636;DHT22;43465;50.728;4.160;2022-11-15T13:04:24;14.80;99.90
57636;DHT22;43465;50.728;4.160;2022-11-15T13:06:58;14.90;99.90
57636;DHT22;43465;50.728;4.160;2022-11-15T13:12:04;15.00;99.90
57636;DHT22;43465;50.728;4.160;2022-11-15T13:14:50;15.00;99.90
57636;DHT22;43465;50.728;4.160;2022-11-15T13:19:47;15.00;99.90
57636;DHT22;43465;50.728;4.160;2022-11-15T13:22:13;15.00;99.90
57636;DHT22;43465;50.728;4.160;2022-11-15T13:24:57;15.00;99.90
57636;DHT22;43465;50.728;4.160;2022-11-15T13:27:24;15.00;99.90
57636;DHT22;43465;50.728;4.160;2022-11-15T13:29:50;15.00;99.90
57636;DHT22;43465;50.728;4.160;2022-11-15T13:32:17;15.00;99.90
57636;DHT22;43465;50.728;4.160;2022-11-15T13:34:45;14.90;99.90
57636;DHT22;43465;50.728;4.160;2022-11-15T13:39:49;14.90;99.90
57636;DHT22;43465;50.728;4.160;2022-11-15T13:42:18;14.80;99.90
57636;DHT22;43465;50.728;4.160;2022-11-15T13:45:02;14.80;99.90
57636;DHT22;43465;50.728;4.160;2022-11-15T13:47:29;14.80;99.90
57636;DHT22;43465;50.728;4.160;2022-11-15T13:49:58;14.80;99.90
57636;DHT22;43465;50.728;4.160;2022-11-15T13:52:31;14.80;99.90
57636;DHT22;43465;50.728;4.160;2022-11-15T13:55:01;14.80;99.90
57636;DHT22;43465;50.728;4.160;2022-11-15T14:00:06;14.80;99.90
57636;DHT22;43465;50.728;4.160;2022-11-15T14:02:47;14.80;99.90
57636;DHT22;43465;50.728;4.160;2022-11-15T14:05:17;14.70;99.90
57636;DHT22;43465;50.728;4.160;2022-11-15T14:08:21;14.70;99.90
57636;DHT22;43465;50.728;4.160;2022-11-15T14:10:48;14.70;99.90
57636;DHT22;43465;50.728;4.160;2022-11-15T14:13:30;14.60;99.90
57636;DHT22;43465;50.728;4.160;2022-11-15T14:16:16;14.50;99.90
57636;DHT22;43465;50.728;4.160;2022-11-15T14:18:47;14.50;99.90
57636;DHT22;43465;50.728;4.160;2022-11-15T14:21:14;14.50;99.90
57636;DHT22;43465;50.728;4.160;2022-11-15T14:23:40;14.50;99.90
57636;DHT22;43465;50.728;4.160;2022-11-15T14:26:10;14.40;99.90
57636;DHT22;43465;50.728;4.160;2022-11-15T14:28:37;14.50;99.90
57636;DHT22;43465;50.728;4.160;2022-11-15T14:31:11;14.40;99.90
57636;DHT22;43465;50.728;4.160;2022-11-15T14:33:39;14.50;99.90
57636;DHT22;43465;50.728;4.160;2022-11-15T14:36:13;14.50;99.90
57636;DHT22;43465;50.728;4.160;2022-11-15T14:38:39;14.50;99.90
57636;DHT22;43465;50.728;4.160;2022-11-15T14:41:08;14.50;99.90
57636;DHT22;43465;50.728;4.160;2022-11-15T14:43:35;14.40;99.90
57636;DHT22;43465;50.728;4.160;2022-11-15T14:46:01;14.40;99.90
57636;DHT22;43465;50.728;4.160;2022-11-15T14:48:26;14.40;99.90
57636;DHT22;43465;50.728;4.160;2022-11-15T14:50:52;14.40;99.90
57636;DHT22;43465;50.728;4.160;2022-11-15T14:53:18;14.40;99.90
57636;DHT22;43465;50.728;4.160;2022-11-15T14:55:45;14.30;99.90
57636;DHT22;43465;50.728;4.160;2022-11-15T14:58:11;14.40;99.90
57636;DHT22;43465;50.728;4.160;2022-11-15T15:00:38;14.30;99.90
57636;DHT22;43465;50.728;4.160;2022-11-15T15:03:05;14.30;99.90
57636;DHT22;43465;50.728;4.160;2022-11-15T15:07:57;14.30;99.90
57636;DHT22;43465;50.728;4.160;2022-11-15T15:10:23;14.30;99.90
57636;DHT22;43465;50.728;4.160;2022-11-15T15:12:49;14.30;99.90
57636;DHT22;43465;50.728;4.160;2022-11-15T15:15:18;14.20;99.90
57636;DHT22;43465;50.728;4.160;2022-11-15T15:17:45;14.20;99.90
57636;DHT22;43465;50.728;4.160;2022-11-15T15:20:11;14.20;99.90
57636;DHT22;43465;50.728;4.160;2022-11-15T15:22:37;14.20;99.90
57636;DHT22;43465;50.728;4.160;2022-11-15T15:25:03;14.10;99.90
57636;DHT22;43465;50.728;4.160;2022-11-15T15:27:32;14.10;99.90
57636;DHT22;43465;50.728;4.160;2022-11-15T15:29:58;14.10;99.90
57636;DHT22;43465;50.728;4.160;2022-11-15T15:32:24;14.10;99.90
57636;DHT22;43465;50.728;4.160;2022-11-15T15:34:49;14.10;99.90
57636;DHT22;43465;50.728;4.160;2022-11-15T15:37:25;14.10;99.90
57636;DHT22;43465;50.728;4.160;2022-11-15T15:39:55;14.10;99.90
57636;DHT22;43465;50.728;4.160;2022-11-15T15:42:22;14.10;99.90
57636;DHT22;43465;50.728;4.160;2022-11-15T15:44:51;14.00;99.90
57636;DHT22;43465;50.728;4.160;2022-11-15T15:47:20;14.10;99.90
57636;DHT22;43465;50.728;4.160;2022-11-15T15:49:47;14.00;99.90
57636;DHT22;43465;50.728;4.160;2022-11-15T15:52:12;14.00;99.90
57636;DHT22;43465;50.728;4.160;2022-11-15T15:54:38;14.00;99.90
57636;DHT22;43465;50.728;4.160;2022-11-15T15:57:05;14.00;99.90
57636;DHT22;43465;50.728;4.160;2022-11-15T15:59:30;14.00;99.90
57636;DHT22;43465;50.728;4.160;2022-11-15T16:01:56;14.00;99.90
57636;DHT22;43465;50.728;4.160;2022-11-15T16:04:22;14.00;99.90
57636;DHT22;43465;50.728;4.160;2022-11-15T16:06:48;14.00;99.90
57636;DHT22;43465;50.728;4.160;2022-11-15T16:09:17;14.10;99.90
57636;DHT22;43465;50.728;4.160;2022-11-15T16:11:45;14.00;99.90
57636;DHT22;43465;50.728;4.160;2022-11-15T16:14:11;14.00;99.90
57636;DHT22;43465;50.728;4.160;2022-11-15T16:16:37;14.00;99.90
57636;DHT22;43465;50.728;4.160;2022-11-15T16:19:04;14.00;99.90
57636;DHT22;43465;50.728;4.160;2022-11-15T16:21:30;14.10;99.90
57636;DHT22;43465;50.728;4.160;2022-11-15T16:23:55;14.00;99.90
57636;DHT22;43465;50.728;4.160;2022-11-15T16:26:26;14.00;99.90
57636;DHT22;43465;50.728;4.160;2022-11-15T16:28:52;14.00;99.90
57636;DHT22;43465;50.728;4.160;2022-11-15T16:31:18;14.00;99.90
57636;DHT22;43465;50.728;4.160;2022-11-15T16:33:46;14.10;99.90
57636;DHT22;43465;50.728;4.160;2022-11-15T16:36:23;14.00;99.90
57636;DHT22;43465;50.728;4.160;2022-11-15T16:38:49;14.00;99.90
57636;DHT22;43465;50.728;4.160;2022-11-15T16:41:16;14.10;99.90
57636;DHT22;43465;50.728;4.160;2022-11-15T16:43:45;14.00;99.90
57636;DHT22;43465;50.728;4.160;2022-11-15T16:46:17;14.00;99.90
57636;DHT22;43465;50.728;4.160;2022-11-15T16:48:43;14.00;99.90
57636;DHT22;43465;50.728;4.160;2022-11-15T16:51:08;14.00;99.90
57636;DHT22;43465;50.728;4.160;2022-11-15T16:53:35;14.00;99.90
57636;DHT22;43465;50.728;4.160;2022-11-15T16:56:00;14.00;99.90
57636;DHT22;43465;50.728;4.160;2022-11-15T16:58:26;14.00;99.90
57636;DHT22;43465;50.728;4.160;2022-11-15T17:00:55;14.00;99.90
57636;DHT22;43465;50.728;4.160;2022-11-15T17:03:22;14.00;99.90
57636;DHT22;43465;50.728;4.160;2022-11-15T17:05:49;14.10;99.90
57636;DHT22;43465;50.728;4.160;2022-11-15T17:08:14;14.00;99.90
57636;DHT22;43465;50.728;4.160;2022-11-15T17:10:40;14.10;99.90
57636;DHT22;43465;50.728;4.160;2022-11-15T17:13:11;14.20;99.90
57636;DHT22;43465;50.728;4.160;2022-11-15T17:15:38;14.10;99.90
57636;DHT22;43465;50.728;4.160;2022-11-15T17:18:04;14.10;99.90
57636;DHT22;43465;50.728;4.160;2022-11-15T17:20:30;14.10;99.90
57636;DHT22;43465;50.728;4.160;2022-11-15T17:22:56;14.10;99.90
57636;DHT22;43465;50.728;4.160;2022-11-15T17:25:22;14.10;99.90
57636;DHT22;43465;50.728;4.160;2022-11-15T17:27:48;14.10;99.90
57636;DHT22;43465;50.728;4.160;2022-11-15T17:30:14;14.00;99.90
57636;DHT22;43465;50.728;4.160;2022-11-15T17:32:40;14.10;99.90
57636;DHT22;43465;50.728;4.160;2022-11-15T17:35:07;14.00;99.90
57636;DHT22;43465;50.728;4.160;2022-11-15T17:37:34;14.00;99.90
57636;DHT22;43465;50.728;4.160;2022-11-15T17:39:59;14.10;99.90
57636;DHT22;43465;50.728;4.160;2022-11-15T17:42:25;14.10;99.90